createdAt,value
2023-04-16T00:00:55.598Z,8.48
2023-04-16T00:03:22.178Z,8.49
2023-04-16T00:05:48.671Z,8.46
2023-04-16T00:08:15.104Z,8.47
2023-04-16T00:10:41.551Z,8.46
2023-04-16T00:13:07.934Z,8.48
2023-04-16T00:15:34.277Z,8.45
2023-04-16T00:18:00.696Z,8.44
2023-04-16T00:20:27.182Z,8.42
2023-04-16T00:22:53.514Z,8.42
2023-04-16T00:25:19.932Z,8.39
2023-04-16T00:27:46.318Z,8.38
2023-04-16T00:30:12.981Z,8.38
2023-04-16T00:32:39.593Z,8.42
2023-04-16T00:35:06.717Z,8.43
2023-04-16T00:37:33.123Z,8.44
2023-04-16T00:39:59.439Z,8.41
2023-04-16T00:42:25.823Z,8.41
2023-04-16T00:44:52.176Z,8.41
2023-04-16T00:47:20.756Z,8.35
2023-04-16T00:49:47.562Z,8.36
2023-04-16T00:52:13.998Z,8.39
2023-04-16T00:54:40.832Z,8.40
2023-04-16T00:57:07.532Z,8.39
2023-04-16T00:59:33.882Z,8.39
2023-04-16T01:02:00.496Z,8.37
2023-04-16T01:04:27.094Z,8.37
2023-04-16T01:06:53.740Z,8.38
2023-04-16T01:09:20.232Z,8.37
2023-04-16T01:11:46.578Z,8.39
2023-04-16T01:14:12.939Z,8.38
2023-04-16T01:16:39.309Z,8.38
2023-04-16T01:19:05.663Z,8.41
2023-04-16T01:21:32.359Z,8.37
2023-04-16T01:24:03.117Z,8.34
2023-04-16T01:26:29.486Z,8.34
2023-04-16T01:28:56.190Z,8.31
2023-04-16T01:31:22.545Z,8.33
2023-04-16T01:33:48.872Z,8.34
2023-04-16T01:36:15.358Z,8.33
2023-04-16T01:38:41.935Z,8.30
2023-04-16T01:41:08.373Z,8.30
2023-04-16T01:43:34.778Z,8.31
2023-04-16T01:46:15.159Z,8.35
2023-04-16T01:48:41.831Z,8.36
2023-04-16T01:51:08.297Z,8.35
2023-04-16T01:53:36.956Z,8.36
2023-04-16T01:56:03.947Z,8.32
2023-04-16T01:58:31.250Z,8.36
2023-04-16T02:00:58.439Z,8.35
2023-04-16T02:03:25.092Z,8.36
2023-04-16T02:05:51.820Z,8.36
2023-04-16T02:08:18.251Z,8.37
2023-04-16T02:10:49.048Z,8.38
2023-04-16T02:13:16.593Z,8.40
2023-04-16T02:15:50.718Z,8.40
2023-04-16T02:18:17.134Z,8.41
2023-04-16T02:20:44.953Z,8.42
2023-04-16T02:23:11.844Z,8.44
2023-04-16T02:25:42.373Z,8.40
2023-04-16T02:28:09.658Z,8.40
2023-04-16T02:30:37.165Z,8.45
2023-04-16T02:33:05.570Z,8.48
2023-04-16T02:35:35.188Z,8.48
2023-04-16T02:38:02.408Z,8.50
2023-04-16T02:40:28.877Z,8.51
2023-04-16T02:42:55.653Z,8.53
2023-04-16T02:45:22.947Z,8.53
2023-04-16T02:47:50.195Z,8.53
2023-04-16T02:50:17.077Z,8.53
2023-04-16T02:52:43.460Z,8.53
2023-04-16T02:55:10.776Z,8.54
2023-04-16T02:57:37.240Z,8.55
2023-04-16T03:00:06.703Z,8.56
2023-04-16T03:02:33.155Z,8.56
2023-04-16T03:04:59.572Z,8.55
2023-04-16T03:07:26.104Z,8.54
2023-04-16T03:09:52.488Z,8.56
2023-04-16T03:12:18.816Z,8.58
2023-04-16T03:14:45.281Z,8.57
2023-04-16T03:17:12.064Z,8.56
2023-04-16T03:19:38.462Z,8.56
2023-04-16T03:22:04.829Z,8.55
2023-04-16T03:24:31.260Z,8.57
2023-04-16T03:26:58.554Z,8.57
2023-04-16T03:29:26.651Z,8.57
2023-04-16T03:31:52.965Z,8.55
2023-04-16T03:34:19.345Z,8.55
2023-04-16T03:36:45.877Z,8.54
2023-04-16T03:39:12.381Z,8.50
2023-04-16T03:41:38.708Z,8.51
2023-04-16T03:44:05.153Z,8.51
2023-04-16T03:46:31.517Z,8.50
2023-04-16T03:48:57.866Z,8.47
2023-04-16T03:51:24.775Z,8.48
2023-04-16T03:53:51.083Z,8.47
2023-04-16T03:56:18.156Z,8.50
2023-04-16T03:58:44.463Z,8.46
2023-04-16T04:01:10.880Z,8.47
2023-04-16T04:03:37.483Z,8.48
2023-04-16T04:06:10.315Z,8.49
2023-04-16T04:08:36.690Z,8.48
2023-04-16T04:11:03.052Z,8.48
2023-04-16T04:13:29.347Z,8.49
2023-04-16T04:15:55.836Z,8.47
2023-04-16T04:18:22.362Z,8.48
2023-04-16T04:20:48.882Z,8.48
2023-04-16T04:23:15.562Z,8.48
2023-04-16T04:25:41.982Z,8.49
2023-04-16T04:28:08.329Z,8.47
2023-04-16T04:30:35.743Z,8.46
2023-04-16T04:33:02.283Z,8.47
2023-04-16T04:35:28.721Z,8.47
2023-04-16T04:37:55.655Z,8.45
2023-04-16T04:40:22.243Z,8.43
2023-04-16T04:42:48.838Z,8.44
2023-04-16T04:45:15.536Z,8.43
2023-04-16T04:47:42.166Z,8.42
2023-04-16T04:50:09.040Z,8.43
2023-04-16T04:52:35.813Z,8.43
2023-04-16T04:55:02.165Z,8.41
2023-04-16T04:57:28.527Z,8.41
2023-04-16T04:59:54.914Z,8.44
2023-04-16T05:02:21.318Z,8.44
2023-04-16T05:04:47.683Z,8.44
2023-04-16T05:07:14.048Z,8.42
2023-04-16T05:09:40.429Z,8.43
2023-04-16T05:12:06.764Z,8.42
2023-04-16T05:14:33.276Z,8.42
2023-04-16T05:16:59.744Z,8.45
2023-04-16T05:19:26.175Z,8.42
2023-04-16T05:21:52.502Z,8.44
2023-04-16T05:24:19.757Z,8.43
2023-04-16T05:26:46.100Z,8.44
2023-04-16T05:29:12.521Z,8.45
2023-04-16T05:31:38.913Z,8.46
2023-04-16T05:34:05.283Z,8.46
2023-04-16T05:36:31.641Z,8.46
2023-04-16T05:38:57.950Z,8.46
2023-04-16T05:41:24.457Z,8.47
2023-04-16T05:43:50.817Z,8.47
2023-04-16T05:46:17.206Z,8.48
2023-04-16T05:48:43.581Z,8.49
2023-04-16T05:51:09.897Z,8.51
2023-04-16T05:53:36.252Z,8.51
2023-04-16T05:56:02.622Z,8.53
2023-04-16T05:58:29.133Z,8.55
2023-04-16T06:00:55.641Z,8.55
2023-04-16T06:03:22.120Z,8.57
2023-04-16T06:05:48.612Z,8.58
2023-04-16T06:08:15.002Z,8.58
2023-04-16T06:10:41.373Z,8.60
2023-04-16T06:13:07.729Z,8.61
2023-04-16T06:15:34.101Z,8.63
2023-04-16T06:18:01.107Z,8.62
2023-04-16T06:20:27.687Z,8.61
2023-04-16T06:22:54.106Z,8.60
2023-04-16T06:25:20.525Z,8.60
2023-04-16T06:27:47.008Z,8.62
2023-04-16T06:30:14.793Z,8.66
2023-04-16T06:32:41.872Z,8.69
2023-04-16T06:35:08.856Z,8.67
2023-04-16T06:37:35.501Z,8.65
2023-04-16T06:40:02.074Z,8.67
2023-04-16T06:42:28.497Z,8.68
2023-04-16T06:44:54.849Z,8.71
2023-04-16T06:47:21.343Z,8.76
2023-04-16T06:49:47.664Z,8.76
2023-04-16T06:52:14.012Z,8.79
2023-04-16T06:54:40.513Z,8.80
2023-04-16T06:57:06.917Z,8.80
2023-04-16T06:59:33.248Z,8.79
2023-04-16T07:01:59.755Z,8.83
2023-04-16T07:04:26.366Z,8.87
2023-04-16T07:06:52.785Z,8.87
2023-04-16T07:09:19.118Z,8.91
2023-04-16T07:11:45.634Z,8.91
2023-04-16T07:14:12.082Z,8.94
2023-04-16T07:16:38.461Z,8.98
2023-04-16T07:19:04.826Z,8.97
2023-04-16T07:21:31.821Z,8.94
2023-04-16T07:23:58.131Z,8.96
2023-04-16T07:26:24.496Z,9.00
2023-04-16T07:28:50.860Z,9.00
2023-04-16T07:31:17.396Z,9.00
2023-04-16T07:33:43.916Z,9.03
2023-04-16T07:36:11.003Z,8.99
2023-04-16T07:38:37.330Z,8.98
2023-04-16T07:41:03.735Z,8.98
2023-04-16T07:43:30.410Z,9.01
2023-04-16T07:45:56.890Z,9.03
2023-04-16T07:48:23.423Z,9.05
2023-04-16T07:50:50.315Z,9.07
2023-04-16T07:53:16.764Z,9.09
2023-04-16T07:55:43.146Z,9.08
2023-04-16T07:58:09.607Z,9.06
2023-04-16T08:00:36.027Z,9.09
2023-04-16T08:03:02.544Z,9.09
2023-04-16T08:05:29.221Z,9.13
2023-04-16T08:07:55.612Z,9.13
2023-04-16T08:10:21.962Z,9.18
2023-04-16T08:12:51.490Z,9.16
2023-04-16T08:15:17.917Z,9.19
2023-04-16T08:17:44.704Z,9.20
2023-04-16T08:20:14.423Z,9.24
2023-04-16T08:22:42.281Z,9.21
2023-04-16T08:25:09.149Z,9.23
2023-04-16T08:27:35.689Z,9.24
2023-04-16T08:30:02.116Z,9.31
2023-04-16T08:32:28.603Z,9.30
2023-04-16T08:34:55.392Z,9.35
2023-04-16T08:37:21.757Z,9.35
2023-04-16T08:39:48.076Z,9.40
2023-04-16T08:42:23.984Z,9.46
2023-04-16T08:44:58.178Z,9.47
2023-04-16T08:47:25.477Z,9.54
2023-04-16T08:49:57.422Z,9.61
2023-04-16T08:52:28.242Z,9.67
2023-04-16T08:55:14.588Z,9.65
2023-04-16T08:58:00.010Z,9.68
2023-04-16T09:00:26.682Z,9.71
2023-04-16T09:02:53.987Z,9.80
2023-04-16T09:05:22.642Z,9.88
2023-04-16T09:07:48.994Z,9.99
2023-04-16T09:10:16.438Z,10.05
2023-04-16T09:12:43.325Z,10.03
2023-04-16T09:15:10.974Z,10.03
2023-04-16T09:17:37.831Z,10.04
2023-04-16T09:20:09.149Z,10.05
2023-04-16T09:22:36.283Z,10.09
2023-04-16T09:25:03.278Z,10.13
2023-04-16T09:27:30.698Z,10.13
2023-04-16T09:29:57.143Z,10.18
2023-04-16T09:32:28.129Z,10.18
2023-04-16T09:34:54.453Z,10.14
2023-04-16T09:37:21.002Z,10.15
2023-04-16T09:39:55.063Z,10.18
2023-04-16T09:42:23.614Z,10.22
2023-04-16T09:44:50.624Z,10.22
2023-04-16T09:47:17.041Z,10.19
2023-04-16T09:49:44.140Z,10.16
2023-04-16T09:52:18.485Z,10.23
2023-04-16T09:54:52.945Z,10.33
2023-04-16T09:57:23.050Z,10.37
2023-04-16T09:59:54.262Z,10.34
2023-04-16T10:02:20.954Z,10.34
2023-04-16T10:04:52.073Z,10.26
2023-04-16T10:07:19.401Z,10.23
2023-04-16T10:09:48.517Z,10.23
2023-04-16T10:12:15.918Z,10.33
2023-04-16T10:14:42.480Z,10.41
2023-04-16T10:17:09.813Z,10.43
2023-04-16T10:19:36.517Z,10.45
2023-04-16T10:22:03.662Z,10.39
2023-04-16T10:24:31.236Z,10.35
2023-04-16T10:26:57.903Z,10.35
2023-04-16T10:29:26.662Z,10.34
2023-04-16T10:31:54.038Z,10.39
2023-04-16T10:34:21.291Z,10.46
2023-04-16T10:36:54.682Z,10.47
2023-04-16T10:39:22.844Z,10.45
2023-04-16T10:41:50.602Z,10.46
2023-04-16T10:44:19.168Z,10.46
2023-04-16T10:46:51.473Z,10.46
2023-04-16T10:49:25.453Z,10.42
2023-04-16T10:51:58.731Z,10.48
2023-04-16T10:54:26.497Z,10.62
2023-04-16T10:56:55.994Z,10.65
2023-04-16T10:59:23.531Z,10.62
2023-04-16T11:01:55.656Z,10.71
2023-04-16T11:04:22.451Z,10.78
2023-04-16T11:07:13.893Z,10.72
2023-04-16T11:09:59.246Z,10.77
2023-04-16T11:12:40.380Z,10.83
2023-04-16T11:15:11.428Z,10.88
2023-04-16T11:17:50.306Z,10.88
2023-04-16T11:20:19.443Z,10.88
2023-04-16T11:22:47.596Z,10.83
2023-04-16T11:25:19.680Z,10.87
2023-04-16T11:27:46.010Z,10.83
2023-04-16T11:30:13.542Z,10.69
2023-04-16T11:32:40.565Z,10.62
2023-04-16T11:35:18.255Z,10.61
2023-04-16T11:37:45.905Z,10.65
2023-04-16T11:40:12.708Z,10.66
2023-04-16T11:42:41.041Z,10.60
2023-04-16T11:45:12.147Z,10.67
2023-04-16T11:47:52.945Z,10.76
2023-04-16T11:50:22.230Z,10.86
2023-04-16T11:52:49.982Z,10.86
2023-04-16T11:55:16.723Z,10.88
2023-04-16T11:57:43.129Z,10.96
2023-04-16T12:00:12.874Z,11.05
2023-04-16T12:02:52.167Z,11.03
2023-04-16T12:05:30.958Z,11.01
2023-04-16T12:07:58.915Z,10.99
2023-04-16T12:10:26.013Z,11.06
2023-04-16T12:12:52.497Z,11.16
2023-04-16T12:15:19.049Z,11.09
2023-04-16T12:17:46.039Z,11.07
2023-04-16T12:20:15.289Z,11.00
2023-04-16T12:22:46.956Z,10.98
2023-04-16T12:25:15.950Z,11.09
2023-04-16T12:27:42.238Z,11.10
2023-04-16T12:30:09.204Z,11.06
2023-04-16T12:32:35.991Z,10.94
2023-04-16T12:35:02.469Z,10.83
2023-04-16T12:37:28.887Z,10.83
2023-04-16T12:39:55.307Z,10.87
2023-04-16T12:42:21.797Z,10.90
2023-04-16T12:44:48.118Z,10.90
2023-04-16T12:47:14.605Z,10.95
2023-04-16T12:49:40.955Z,11.00
2023-04-16T12:52:07.349Z,11.07
2023-04-16T12:54:33.920Z,11.09
2023-04-16T12:57:00.294Z,11.16
2023-04-16T12:59:26.622Z,11.34
2023-04-16T13:01:53.092Z,11.53
2023-04-16T13:04:19.649Z,11.61
2023-04-16T13:06:46.254Z,11.59
2023-04-16T13:09:12.810Z,11.55
2023-04-16T13:11:39.248Z,11.49
2023-04-16T13:14:06.260Z,11.49
2023-04-16T13:16:32.601Z,11.40
2023-04-16T13:18:58.966Z,11.29
2023-04-16T13:21:25.286Z,11.26
2023-04-16T13:23:51.628Z,11.33
2023-04-16T13:26:18.036Z,11.46
2023-04-16T13:28:44.446Z,11.50
2023-04-16T13:31:10.981Z,11.54
2023-04-16T13:33:38.115Z,11.71
2023-04-16T13:36:04.811Z,11.66
2023-04-16T13:38:31.164Z,11.65
2023-04-16T13:40:57.521Z,11.52
2023-04-16T13:43:24.063Z,11.50
2023-04-16T13:45:50.618Z,11.44
2023-04-16T13:48:18.014Z,11.41
2023-04-16T13:50:44.435Z,11.43
2023-04-16T13:53:10.793Z,11.36
2023-04-16T13:55:37.223Z,11.45
2023-04-16T13:58:03.652Z,11.64
2023-04-16T14:00:30.052Z,11.70
2023-04-16T14:02:56.761Z,11.87
2023-04-16T14:05:25.185Z,11.92
2023-04-16T14:07:53.107Z,11.98
2023-04-16T14:10:19.712Z,12.11
2023-04-16T14:12:46.200Z,12.21
2023-04-16T14:15:14.633Z,12.18
2023-04-16T14:17:43.885Z,12.13
2023-04-16T14:20:12.376Z,12.05
2023-04-16T14:22:39.314Z,12.33
2023-04-16T14:25:07.026Z,12.55
2023-04-16T14:27:34.225Z,12.87
2023-04-16T14:30:00.992Z,13.33
2023-04-16T14:32:27.604Z,13.28
2023-04-16T14:34:54.046Z,12.88
2023-04-16T14:37:20.556Z,12.67
2023-04-16T14:39:46.906Z,12.43
2023-04-16T14:42:13.311Z,12.17
2023-04-16T14:44:39.698Z,12.02
2023-04-16T14:47:06.493Z,12.02
2023-04-16T14:49:33.329Z,11.98
2023-04-16T14:52:02.198Z,12.04
2023-04-16T14:54:28.581Z,12.11
2023-04-16T14:56:54.961Z,12.21
2023-04-16T14:59:21.321Z,12.25
2023-04-16T15:01:47.979Z,12.19
2023-04-16T15:04:14.536Z,12.28
2023-04-16T15:06:42.013Z,12.52
2023-04-16T15:09:09.433Z,12.80
2023-04-16T15:11:36.005Z,12.91
2023-04-16T15:14:02.475Z,12.98
2023-04-16T15:16:28.906Z,13.24
2023-04-16T15:18:55.365Z,13.34
2023-04-16T15:21:21.879Z,13.34
2023-04-16T15:23:48.258Z,13.24
2023-04-16T15:26:14.616Z,13.11
2023-04-16T15:28:41.296Z,13.03
2023-04-16T15:31:07.744Z,12.99
2023-04-16T15:33:34.064Z,12.90
2023-04-16T15:36:00.434Z,12.77
2023-04-16T15:38:28.531Z,12.70
2023-04-16T15:40:54.963Z,12.65
2023-04-16T15:43:21.392Z,12.52
2023-04-16T15:45:47.753Z,12.19
2023-04-16T15:48:14.310Z,11.92
2023-04-16T15:50:40.738Z,11.86
2023-04-16T15:53:07.137Z,11.65
2023-04-16T15:55:34.422Z,11.59
2023-04-16T15:58:00.824Z,11.62
2023-04-16T16:00:27.674Z,11.57
2023-04-16T16:02:54.141Z,11.59
2023-04-16T16:05:20.717Z,11.48
2023-04-16T16:07:47.194Z,11.45
2023-04-16T16:10:13.628Z,11.40
2023-04-16T16:12:40.878Z,11.41
2023-04-16T16:15:07.697Z,11.38
2023-04-16T16:17:34.097Z,11.40
2023-04-16T16:20:01.015Z,11.41
2023-04-16T16:22:27.500Z,11.39
2023-04-16T16:24:55.588Z,11.26
2023-04-16T16:27:22.577Z,11.16
2023-04-16T16:29:49.119Z,11.18
2023-04-16T16:32:16.562Z,11.15
2023-04-16T16:34:43.150Z,11.11
2023-04-16T16:37:09.555Z,11.10
2023-04-16T16:39:38.336Z,11.10
2023-04-16T16:42:05.099Z,11.00
2023-04-16T16:44:31.579Z,10.95
2023-04-16T16:46:57.988Z,10.94
2023-04-16T16:49:24.433Z,10.93
2023-04-16T16:51:50.846Z,10.90
2023-04-16T16:54:17.178Z,10.83
2023-04-16T16:56:43.491Z,10.71
2023-04-16T16:59:10.533Z,10.65
2023-04-16T17:01:37.266Z,10.58
2023-04-16T17:04:04.139Z,10.54
2023-04-16T17:06:31.909Z,10.50
2023-04-16T17:08:58.281Z,10.45
2023-04-16T17:11:26.946Z,10.32
2023-04-16T17:13:53.648Z,10.21
2023-04-16T17:16:20.028Z,10.15
2023-04-16T17:18:46.548Z,10.14
2023-04-16T17:21:15.108Z,10.13
2023-04-16T17:23:42.742Z,10.10
2023-04-16T17:26:09.072Z,10.05
2023-04-16T17:28:35.390Z,10.03
2023-04-16T17:31:02.748Z,9.99
2023-04-16T17:33:29.139Z,9.88
2023-04-16T17:35:55.509Z,9.79
2023-04-16T17:38:21.863Z,9.74
2023-04-16T17:40:48.181Z,9.76
2023-04-16T17:43:14.562Z,9.76
2023-04-16T17:45:40.972Z,9.74
2023-04-16T17:48:07.421Z,9.77
2023-04-16T17:50:34.034Z,9.74
2023-04-16T17:53:03.628Z,9.69
2023-04-16T17:55:30.955Z,9.67
2023-04-16T17:57:57.269Z,9.72
2023-04-16T18:00:23.816Z,9.69
2023-04-16T18:02:52.323Z,9.70
2023-04-16T18:05:21.611Z,9.65
2023-04-16T18:07:48.262Z,9.58
2023-04-16T18:10:14.611Z,9.55
2023-04-16T18:12:41.088Z,9.53
2023-04-16T18:15:08.010Z,9.53
2023-04-16T18:17:34.385Z,9.54
2023-04-16T18:20:00.894Z,9.49
2023-04-16T18:22:28.469Z,9.46
2023-04-16T18:24:55.089Z,9.42
2023-04-16T18:27:21.608Z,9.39
2023-04-16T18:29:49.404Z,9.40
2023-04-16T18:32:16.112Z,9.37
2023-04-16T18:34:42.535Z,9.35
2023-04-16T18:37:08.928Z,9.33
2023-04-16T18:39:36.631Z,9.28
2023-04-16T18:42:03.710Z,9.20
2023-04-16T18:44:30.040Z,9.18
2023-04-16T18:46:56.454Z,9.17
2023-04-16T18:49:22.998Z,9.13
2023-04-16T18:51:49.357Z,9.12
2023-04-16T18:54:15.746Z,9.14
2023-04-16T18:56:42.091Z,9.08
2023-04-16T18:59:08.640Z,9.09
2023-04-16T19:01:35.138Z,9.08
2023-04-16T19:04:01.574Z,9.06
2023-04-16T19:06:29.080Z,9.07
2023-04-16T19:08:55.628Z,9.06
2023-04-16T19:11:22.023Z,9.11
2023-04-16T19:13:48.497Z,9.12
2023-04-16T19:16:14.963Z,9.07
2023-04-16T19:18:41.429Z,9.06
2023-04-16T19:21:09.875Z,9.05
2023-04-16T19:23:36.447Z,9.01
2023-04-16T19:26:02.774Z,8.98
2023-04-16T19:28:29.132Z,8.99
2023-04-16T19:30:55.849Z,9.00
2023-04-16T19:33:22.254Z,9.03
2023-04-16T19:35:48.823Z,9.01
2023-04-16T19:38:15.589Z,9.08
2023-04-16T19:40:46.454Z,9.07
2023-04-16T19:43:13.045Z,8.96
2023-04-16T19:45:47.412Z,8.97
2023-04-16T19:48:14.374Z,8.92
2023-04-16T19:50:42.059Z,8.92
2023-04-16T19:53:08.824Z,8.98
2023-04-16T19:55:35.388Z,8.97
2023-04-16T19:58:06.028Z,8.96
2023-04-16T20:00:33.456Z,8.98
2023-04-16T20:03:00.118Z,8.96
2023-04-16T20:05:27.386Z,8.90
2023-04-16T20:07:54.362Z,8.90
2023-04-16T20:10:21.024Z,8.90
2023-04-16T20:12:47.748Z,8.84
2023-04-16T20:15:14.121Z,8.83
2023-04-16T20:17:40.759Z,8.81
2023-04-16T20:20:10.131Z,8.79
2023-04-16T20:22:37.649Z,8.74
2023-04-16T20:25:05.463Z,8.74
2023-04-16T20:27:32.848Z,8.72
2023-04-16T20:30:00.409Z,8.73
2023-04-16T20:32:27.927Z,8.80
2023-04-16T20:34:55.574Z,8.83
2023-04-16T20:37:22.036Z,8.81
2023-04-16T20:39:50.114Z,8.81
2023-04-16T20:42:16.715Z,8.86
2023-04-16T20:44:50.256Z,8.89
2023-04-16T20:47:17.263Z,8.85
2023-04-16T20:49:47.076Z,8.83
2023-04-16T20:52:13.877Z,8.79
2023-04-16T20:54:40.338Z,8.78
2023-04-16T20:57:06.760Z,8.77
2023-04-16T20:59:33.169Z,8.75
2023-04-16T21:01:59.888Z,8.70
2023-04-16T21:04:26.546Z,8.67
2023-04-16T21:06:55.608Z,8.63
2023-04-16T21:09:22.709Z,8.63
2023-04-16T21:11:49.053Z,8.64
2023-04-16T21:14:15.445Z,8.63
2023-04-16T21:16:41.759Z,8.62
2023-04-16T21:19:08.797Z,8.60
2023-04-16T21:21:35.442Z,8.58
2023-04-16T21:24:01.892Z,8.60
2023-04-16T21:26:28.342Z,8.58
2023-04-16T21:28:55.296Z,8.52
2023-04-16T21:31:21.970Z,8.59
2023-04-16T21:33:48.383Z,8.54
2023-04-16T21:36:15.404Z,8.54
2023-04-16T21:38:41.761Z,8.58
2023-04-16T21:41:08.080Z,8.57
2023-04-16T21:43:34.429Z,8.57
2023-04-16T21:46:00.883Z,8.53
2023-04-16T21:48:28.391Z,8.51
2023-04-16T21:50:59.654Z,8.48
2023-04-16T21:53:31.772Z,8.48
2023-04-16T21:55:58.255Z,8.44
2023-04-16T21:58:25.775Z,8.39
2023-04-16T22:00:52.372Z,8.40
2023-04-16T22:03:19.045Z,8.37
2023-04-16T22:05:45.863Z,8.39
2023-04-16T22:08:24.188Z,8.42
2023-04-16T22:10:51.486Z,8.40
2023-04-16T22:13:18.139Z,8.40
2023-04-16T22:15:44.559Z,8.41
2023-04-16T22:18:11.416Z,8.41
2023-04-16T22:20:38.901Z,8.41
2023-04-16T22:23:06.331Z,8.43
2023-04-16T22:25:32.925Z,8.42
2023-04-16T22:28:01.212Z,8.37
2023-04-16T22:30:27.544Z,8.35
2023-04-16T22:32:53.998Z,8.30
2023-04-16T22:35:20.484Z,8.25
2023-04-16T22:37:46.840Z,8.21
2023-04-16T22:40:13.229Z,8.18
2023-04-16T22:42:39.593Z,8.16
2023-04-16T22:45:07.136Z,8.19
2023-04-16T22:47:33.509Z,8.19
2023-04-16T22:50:00.428Z,8.22
2023-04-16T22:52:27.451Z,8.25
2023-04-16T22:54:53.867Z,8.27
2023-04-16T22:57:25.380Z,8.27
2023-04-16T22:59:52.377Z,8.30
2023-04-16T23:02:19.549Z,8.31
2023-04-16T23:04:47.795Z,8.30
2023-04-16T23:07:14.829Z,8.32
2023-04-16T23:09:41.267Z,8.28
2023-04-16T23:12:07.950Z,8.25
2023-04-16T23:14:34.992Z,8.19
2023-04-16T23:17:01.374Z,8.16
2023-04-16T23:19:27.748Z,8.16
2023-04-16T23:21:54.128Z,8.17
2023-04-16T23:24:20.495Z,8.21
2023-04-16T23:26:47.906Z,8.20
2023-04-16T23:29:14.274Z,8.23
2023-04-16T23:31:40.758Z,8.23
2023-04-16T23:34:07.176Z,8.21
2023-04-16T23:36:33.477Z,8.18
2023-04-16T23:38:59.780Z,8.15
2023-04-16T23:41:26.202Z,8.18
2023-04-16T23:43:52.517Z,8.17
2023-04-16T23:46:18.867Z,8.15
2023-04-16T23:48:45.331Z,8.16
2023-04-16T23:51:11.800Z,8.17
2023-04-16T23:53:38.251Z,8.20
2023-04-16T23:56:04.811Z,8.20
2023-04-16T23:58:31.340Z,8.24
